Time;durP1;ratioP1;P1;durP2;ratioP2;P2;SDS_P1;SDS_P2;PMS_P1;PMS_P2;Temp;Humidity;BMP_temperature;BMP_pressure;BME280_temperature;BME280_humidity;BME280_pressure;Samples;Min_cycle;Max_cycle;Signal;HPM_P1;HPM_P2
2023/06/10 00:01:24;;;;;;;6.53;5.27;;;16.00;99.90;;;;;;5055875;28;20181;-81
2023/06/10 00:03:51;;;;;;;6.43;5.70;;;16.00;99.90;;;;;;5055188;28;20166;-81
2023/06/10 00:06:17;;;;;;;6.23;5.63;;;15.90;99.90;;;;;;5056572;28;20176;-82
2023/06/10 00:08:43;;;;;;;6.20;5.70;;;15.80;99.90;;;;;;5054438;28;20261;-81
2023/06/10 00:11:08;;;;;;;6.50;5.80;;;15.80;1.00;;;;;;5055306;28;20181;-81
2023/06/10 00:13:34;;;;;;;7.37;5.83;;;15.70;1.00;;;;;;5055934;28;20198;-81
2023/06/10 00:16:00;;;;;;;5.90;5.30;;;15.60;1.00;;;;;;5054571;28;20174;-81
2023/06/10 00:18:26;;;;;;;7.13;5.70;;;15.60;1.00;;;;;;5055687;28;20189;-81
2023/06/10 00:20:54;;;;;;;6.47;5.67;;;15.60;1.00;;;;;;5054562;28;20213;-81
2023/06/10 00:23:21;;;;;;;6.13;5.43;;;15.60;1.00;;;;;;5055992;28;20220;-81
2023/06/10 00:25:47;;;;;;;6.23;5.63;;;15.60;1.00;;;;;;5054485;28;20264;-81
2023/06/10 00:28:13;;;;;;;6.27;5.47;;;15.40;1.00;;;;;;5055617;28;20323;-82
2023/06/10 00:30:39;;;;;;;7.20;5.87;;;15.50;1.00;;;;;;5054578;28;20664;-81
2023/06/10 00:33:04;;;;;;;5.77;5.23;;;15.50;1.00;;;;;;5056192;28;20202;-81
2023/06/10 00:35:30;;;;;;;6.40;5.60;;;15.60;1.00;;;;;;5054781;28;20180;-81
2023/06/10 00:37:55;;;;;;;6.37;5.60;;;15.50;1.00;;;;;;5054339;28;20250;-81
2023/06/10 00:40:21;;;;;;;6.80;5.57;;;15.50;1.00;;;;;;5054265;28;20185;-82
2023/06/10 00:42:46;;;;;;;6.67;5.60;;;15.50;1.00;;;;;;5055544;28;20198;-82
2023/06/10 00:45:12;;;;;;;7.73;5.73;;;15.40;1.00;;;;;;5055322;28;20174;-82
2023/06/10 00:47:39;;;;;;;6.10;5.50;;;15.40;1.00;;;;;;5055845;28;20201;-81
2023/06/10 00:50:05;;;;;;;6.20;5.60;;;15.60;1.00;;;;;;5055314;28;20177;-81
2023/06/10 00:52:31;;;;;;;6.67;5.80;;;15.60;1.00;;;;;;5055115;28;20225;-81
2023/06/10 00:54:58;;;;;;;8.10;6.87;;;15.30;1.00;;;;;;5053843;28;20177;-82
2023/06/10 00:57:25;;;;;;;10.43;8.47;;;15.20;1.00;;;;;;5055324;28;20180;-81
2023/06/10 00:59:51;;;;;;;8.90;8.00;;;15.10;1.00;;;;;;5053680;28;20180;-81
2023/06/10 01:02:17;;;;;;;9.97;9.00;;;15.00;1.00;;;;;;5055342;28;20335;-82
2023/06/10 01:04:42;;;;;;;9.43;8.53;;;14.90;93.90;;;;;;5055401;28;20209;-81
2023/06/10 01:07:24;;;;;;;11.10;8.50;;;15.00;99.90;;;;;;5055082;28;20198;-81
2023/06/10 01:10:05;;;;;;;8.93;8.03;;;15.10;1.00;;;;;;5054753;28;20257;-81
2023/06/10 01:12:34;;;;;;;8.93;8.03;;;15.30;1.00;;;;;;5054693;28;20194;-81
2023/06/10 01:15:01;;;;;;;9.60;8.60;;;15.30;1.00;;;;;;5053793;28;20170;-81
2023/06/10 01:17:28;;;;;;;8.20;7.50;;;15.30;1.00;;;;;;5053545;28;20173;-82
2023/06/10 01:19:55;;;;;;;8.50;7.70;;;15.30;1.00;;;;;;5054392;28;20666;-81
2023/06/10 01:22:22;;;;;;;8.10;7.30;;;15.30;1.00;;;;;;5054197;28;20222;-81
2023/06/10 01:24:50;;;;;;;9.27;7.30;;;15.20;1.00;;;;;;5053094;28;20185;-82
2023/06/10 01:27:21;;;;;;;10.10;7.07;;;15.10;1.00;;;;;;5053410;28;20292;-80
2023/06/10 01:29:54;;;;;;;7.27;6.57;;;15.10;1.00;;;;;;5054063;28;20169;-81
2023/06/10 01:32:34;;;;;;;8.07;7.10;;;15.00;1.00;;;;;;5052798;28;20258;-81
2023/06/10 01:35:01;;;;;;;6.93;6.23;;;15.10;1.00;;;;;;5054492;28;20162;-81
2023/06/10 01:37:27;;;;;;;7.93;6.20;;;15.00;1.00;;;;;;5054387;28;20265;-81
2023/06/10 01:39:56;;;;;;;7.10;6.40;;;14.90;1.00;;;;;;5054301;28;20198;-81
2023/06/10 01:42:22;;;;;;;7.43;6.10;;;14.90;1.00;;;;;;5054476;28;20189;-81
2023/06/10 01:44:47;;;;;;;8.53;6.17;;;14.70;1.00;;;;;;5053201;28;20227;-81
2023/06/10 01:47:13;;;;;;;6.33;5.73;;;14.80;1.00;;;;;;5054522;28;20301;-81
2023/06/10 01:49:38;;;;;;;6.33;5.63;;;14.70;1.00;;;;;;5052813;28;20170;-81
2023/06/10 01:52:04;;;;;;;6.43;5.83;;;14.70;1.00;;;;;;5054305;28;20190;-81
2023/06/10 01:54:30;;;;;;;7.30;5.70;;;14.80;1.00;;;;;;5053367;28;20182;-81
2023/06/10 01:56:55;;;;;;;7.40;5.57;;;14.70;1.00;;;;;;5052979;28;20173;-81
2023/06/10 01:59:21;;;;;;;7.47;5.50;;;14.80;1.00;;;;;;5054099;28;20184;-80
2023/06/10 02:01:46;;;;;;;6.73;5.57;;;14.80;1.00;;;;;;5053052;28;20239;-81
2023/06/10 02:04:12;;;;;;;6.93;5.07;;;14.70;1.00;;;;;;5053474;28;20173;-81
2023/06/10 02:06:38;;;;;;;6.33;5.50;;;14.80;1.00;;;;;;5054420;28;20208;-81
2023/06/10 02:09:03;;;;;;;6.33;5.37;;;14.70;1.00;;;;;;5054360;28;20584;-82
2023/06/10 02:11:29;;;;;;;6.30;5.30;;;14.80;1.00;;;;;;5052559;28;20201;-81
2023/06/10 02:13:55;;;;;;;6.73;5.63;;;14.70;1.00;;;;;;5054263;28;20188;-81
2023/06/10 02:16:21;;;;;;;9.67;5.50;;;14.60;1.00;;;;;;5052656;28;20173;-81
2023/06/10 02:18:48;;;;;;;6.00;5.37;;;14.60;1.00;;;;;;5053066;28;20169;-80
2023/06/10 02:21:14;;;;;;;5.93;5.33;;;14.60;1.00;;;;;;5052493;28;20222;-81
2023/06/10 02:23:40;;;;;;;7.53;5.40;;;14.70;1.00;;;;;;5054074;28;20194;-81
2023/06/10 02:26:05;;;;;;;6.07;4.87;;;14.60;99.90;;;;;;5052671;28;20180;-80
2023/06/10 02:28:31;;;;;;;6.43;5.07;;;14.50;1.00;;;;;;5052158;28;20288;-81
2023/06/10 02:30:57;;;;;;;5.67;5.00;;;14.60;1.00;;;;;;5052271;28;20549;-82
2023/06/10 02:33:24;;;;;;;5.53;5.00;;;14.50;1.00;;;;;;5052781;28;20190;-81
2023/06/10 02:35:49;;;;;;;6.40;5.33;;;14.50;1.00;;;;;;5054280;28;20177;-81
2023/06/10 02:38:15;;;;;;;5.80;5.20;;;14.50;1.00;;;;;;5053851;28;20182;-81
2023/06/10 02:40:40;;;;;;;6.90;5.47;;;14.60;99.90;;;;;;5053673;28;20182;-81
2023/06/10 02:43:06;;;;;;;9.77;5.33;;;14.60;99.90;;;;;;5056718;28;20228;-81
2023/06/10 02:45:31;;;;;;;6.33;5.40;;;14.60;99.90;;;;;;5056193;28;20181;-81
2023/06/10 02:47:57;;;;;;;5.23;4.70;;;14.70;99.90;;;;;;5057017;28;20247;-81
2023/06/10 02:50:23;;;;;;;5.87;4.97;;;14.60;99.90;;;;;;5057863;28;20224;-81
2023/06/10 02:52:48;;;;;;;5.83;5.23;;;14.50;99.90;;;;;;5057937;28;20258;-79
2023/06/10 02:55:14;;;;;;;6.30;4.90;;;14.50;99.90;;;;;;5057810;28;20181;-81
2023/06/10 02:57:40;;;;;;;6.87;5.00;;;14.40;1.00;;;;;;5058314;28;20667;-81
2023/06/10 03:00:10;;;;;;;5.87;4.87;;;14.30;1.00;;;;;;5057701;28;20251;-81
2023/06/10 03:02:37;;;;;;;5.87;5.27;;;14.30;1.00;;;;;;5057666;28;20202;-81
2023/06/10 03:05:03;;;;;;;5.43;4.93;;;14.40;1.00;;;;;;5057468;28;20177;-81
2023/06/10 03:07:28;;;;;;;6.03;5.43;;;14.40;1.00;;;;;;5056510;28;20687;-81
2023/06/10 03:09:54;;;;;;;8.27;5.47;;;14.40;1.00;;;;;;5057316;28;20173;-81
2023/06/10 03:12:19;;;;;;;6.00;5.40;;;14.50;1.00;;;;;;5056142;28;20194;-81
2023/06/10 03:14:45;;;;;;;5.67;4.90;;;14.50;1.00;;;;;;5056247;28;20256;-80
2023/06/10 03:17:11;;;;;;;5.57;5.00;;;14.50;99.90;;;;;;5056060;28;20215;-81
2023/06/10 03:19:37;;;;;;;5.10;4.70;;;14.50;99.90;;;;;;5056783;28;20178;-81
2023/06/10 03:22:14;;;;;;;5.90;5.07;;;14.60;99.90;;;;;;5057341;28;20213;-81
2023/06/10 03:24:40;;;;;;;6.67;4.93;;;14.30;99.90;;;;;;5057269;28;20210;-81
2023/06/10 03:27:07;;;;;;;6.67;5.47;;;14.10;1.00;;;;;;5057186;28;20198;-81
2023/06/10 03:29:33;;;;;;;6.27;5.20;;;14.10;1.00;;;;;;5057155;28;20184;-81
2023/06/10 03:31:59;;;;;;;6.40;5.80;;;14.10;1.00;;;;;;5057191;28;20212;-81
2023/06/10 03:34:24;;;;;;;5.70;5.20;;;14.10;1.00;;;;;;5057291;28;20216;-81
2023/06/10 03:36:50;;;;;;;7.00;5.20;;;14.10;1.00;;;;;;5057485;28;20174;-81
2023/06/10 03:39:16;;;;;;;6.20;5.07;;;14.10;1.00;;;;;;5055917;28;20268;-81
2023/06/10 03:41:41;;;;;;;5.70;5.10;;;14.00;1.00;;;;;;5056949;28;20200;-81
2023/06/10 03:44:07;;;;;;;6.00;5.07;;;14.00;1.00;;;;;;5057185;28;20188;-81
2023/06/10 03:46:32;;;;;;;5.73;4.90;;;14.00;1.00;;;;;;5056812;28;20213;-81
2023/06/10 03:49:00;;;;;;;5.37;4.87;;;14.10;1.00;;;;;;5055643;28;20180;-81
2023/06/10 03:51:26;;;;;;;6.87;5.00;;;14.10;1.00;;;;;;5056992;28;20595;-82
2023/06/10 03:53:52;;;;;;;5.50;4.90;;;14.10;1.00;;;;;;5055576;28;20228;-81
2023/06/10 03:56:17;;;;;;;6.93;5.40;;;14.20;1.00;;;;;;5055293;28;20170;-81
2023/06/10 03:58:43;;;;;;;5.40;4.90;;;14.20;1.00;;;;;;5056218;28;20195;-81
2023/06/10 04:01:08;;;;;;;5.90;5.13;;;14.30;1.00;;;;;;5052426;28;20192;-81
2023/06/10 04:03:34;;;;;;;5.47;4.97;;;14.20;1.00;;;;;;5051511;28;20209;-81
2023/06/10 04:06:00;;;;;;;6.30;5.23;;;14.20;1.00;;;;;;5055087;28;20178;-81
2023/06/10 04:08:25;;;;;;;6.90;4.70;;;14.20;1.00;;;;;;5054862;28;20263;-81
2023/06/10 04:10:51;;;;;;;5.60;4.60;;;14.10;1.00;;;;;;5056032;28;20170;-81
2023/06/10 04:13:17;;;;;;;6.33;5.23;;;14.00;1.00;;;;;;5055932;28;20209;-82
2023/06/10 04:15:42;;;;;;;5.97;5.03;;;14.00;1.00;;;;;;5054863;28;20197;-82
2023/06/10 04:18:08;;;;;;;6.57;4.80;;;14.00;15.30;;;;;;5056227;28;20690;-80
2023/06/10 04:20:34;;;;;;;5.70;4.50;;;14.10;18.00;;;;;;5056310;28;20177;-81
2023/06/10 04:22:59;;;;;;;6.87;5.37;;;14.10;1.00;;;;;;5053703;28;20205;-81
2023/06/10 04:25:26;;;;;;;6.07;4.73;;;14.10;23.90;;;;;;5056288;28;20180;-82
2023/06/10 04:27:51;;;;;;;6.00;4.70;;;14.20;35.90;;;;;;5054642;28;20195;-81
2023/06/10 04:30:18;;;;;;;7.50;5.13;;;14.10;19.20;;;;;;5054607;28;20650;-81
2023/06/10 04:32:43;;;;;;;5.43;4.50;;;14.10;16.20;;;;;;5055701;28;20205;-82
2023/06/10 04:35:12;;;;;;;6.07;4.63;;;14.20;99.90;;;;;;5055782;28;20173;-81
2023/06/10 04:37:38;;;;;;;5.50;5.00;;;14.10;99.90;;;;;;5056417;28;20173;-81
2023/06/10 04:40:05;;;;;;;5.77;5.10;;;14.30;99.90;;;;;;5056794;28;20199;-81
2023/06/10 04:42:31;;;;;;;6.90;4.87;;;14.20;99.90;;;;;;5056522;28;20189;-81
2023/06/10 04:44:57;;;;;;;5.30;4.80;;;14.40;99.90;;;;;;5056814;28;20174;-81
2023/06/10 04:47:23;;;;;;;7.30;4.90;;;14.60;99.90;;;;;;5055142;28;20212;-81
2023/06/10 04:49:48;;;;;;;6.70;5.10;;;14.60;74.70;;;;;;5056094;28;20170;-81
2023/06/10 04:52:14;;;;;;;5.27;4.77;;;14.60;99.90;;;;;;5055835;28;20194;-81
2023/06/10 04:54:40;;;;;;;4.97;4.47;;;14.60;99.90;;;;;;5054587;28;20574;-81
2023/06/10 04:57:07;;;;;;;6.87;5.20;;;14.70;99.90;;;;;;5055701;28;20593;-81
2023/06/10 04:59:33;;;;;;;5.60;5.00;;;14.60;99.90;;;;;;5054091;28;20664;-81
2023/06/10 05:01:58;;;;;;;5.73;5.20;;;14.60;99.90;;;;;;5053708;28;20194;-81
2023/06/10 05:04:25;;;;;;;5.67;5.10;;;14.70;99.90;;;;;;5054027;28;20186;-81
2023/06/10 05:06:50;;;;;;;5.87;5.27;;;14.80;99.90;;;;;;5055012;28;20726;-81
2023/06/10 05:09:16;;;;;;;6.00;5.50;;;14.90;99.90;;;;;;5055616;28;20173;-82
2023/06/10 05:11:42;;;;;;;7.40;5.60;;;14.90;53.40;;;;;;5052394;28;20770;-82
2023/06/10 05:14:07;;;;;;;6.77;5.70;;;15.00;99.90;;;;;;5054266;28;20219;-83
2023/06/10 05:16:33;;;;;;;7.27;5.83;;;15.10;39.80;;;;;;5054395;28;20184;-82
2023/06/10 05:18:58;;;;;;;6.67;5.83;;;15.20;1.00;;;;;;5052426;28;20216;-83
2023/06/10 05:21:24;;;;;;;5.80;5.20;;;15.20;1.00;;;;;;5052809;28;20212;-83
2023/06/10 05:23:50;;;;;;;6.17;5.57;;;15.30;1.00;;;;;;5053582;28;20170;-83
2023/06/10 05:26:16;;;;;;;6.63;6.00;;;15.40;1.00;;;;;;5053447;28;20230;-83
2023/06/10 05:28:42;;;;;;;6.97;5.63;;;15.50;1.00;;;;;;5051987;28;20213;-83
2023/06/10 05:31:08;;;;;;;6.77;5.57;;;15.60;1.00;;;;;;5053244;28;20169;-83
2023/06/10 05:33:34;;;;;;;6.83;5.63;;;15.70;1.00;;;;;;5052163;28;20189;-81
2023/06/10 05:35:59;;;;;;;5.23;4.73;;;15.80;1.00;;;;;;5054627;28;20174;-81
2023/06/10 05:38:25;;;;;;;4.83;4.40;;;16.10;1.00;;;;;;5052373;28;20184;-81
2023/06/10 05:40:50;;;;;;;6.10;5.10;;;16.40;1.00;;;;;;5052836;28;20220;-81
2023/06/10 05:43:16;;;;;;;6.13;5.43;;;16.60;99.90;;;;;;5053593;28;20247;-81
2023/06/10 05:45:42;;;;;;;6.47;5.80;;;16.70;99.90;;;;;;5053838;28;20172;-81
2023/06/10 05:48:07;;;;;;;6.07;5.33;;;16.70;99.90;;;;;;5054294;28;20205;-82
2023/06/10 05:50:38;;;;;;;6.17;5.03;;;16.80;99.90;;;;;;5053349;28;20174;-80
2023/06/10 05:53:06;;;;;;;6.17;5.50;;;16.90;7.50;;;;;;5090288;22;20599;-78
2023/06/10 05:55:32;;;;;;;6.43;4.80;;;17.00;99.90;;;;;;5056259;28;20192;-77
2023/06/10 05:58:01;;;;;;;5.30;4.60;;;17.20;1.00;;;;;;5074842;28;20648;-77
2023/06/10 06:00:27;;;;;;;5.53;5.03;;;17.30;1.00;;;;;;5055728;28;20260;-75
2023/06/10 06:02:54;;;;;;;9.30;5.40;;;17.40;1.00;;;;;;5056325;28;20229;-78
2023/06/10 06:05:19;;;;;;;5.67;5.07;;;17.50;1.00;;;;;;5075003;28;20214;-78
2023/06/10 06:07:45;;;;;;;6.03;4.80;;;17.60;99.90;;;;;;5077365;28;20283;-78
2023/06/10 06:10:10;;;;;;;6.20;5.27;;;17.70;99.90;;;;;;5075817;28;20180;-78
2023/06/10 06:12:36;;;;;;;5.57;4.83;;;17.80;1.00;;;;;;5058423;28;20191;-78
2023/06/10 06:15:03;;;;;;;6.80;5.10;;;17.80;1.00;;;;;;5056849;28;20936;-77
2023/06/10 06:17:28;;;;;;;7.27;4.80;;;17.80;1.00;;;;;;5058345;28;20726;-77
2023/06/10 06:19:54;;;;;;;6.33;5.27;;;17.80;52.40;;;;;;5060397;28;20207;-78
2023/06/10 06:22:21;;;;;;;5.63;4.63;;;17.90;1.00;;;;;;5059754;28;20193;-77
2023/06/10 06:24:47;;;;;;;5.43;4.87;;;18.00;1.00;;;;;;5073101;28;20177;-77
2023/06/10 06:27:13;;;;;;;5.77;4.97;;;18.10;1.00;;;;;;5077672;28;20246;-77
2023/06/10 06:29:38;;;;;;;7.20;5.03;;;18.20;99.90;;;;;;5059744;28;20234;-77
2023/06/10 06:32:04;;;;;;;6.30;4.93;;;18.30;1.00;;;;;;5077935;28;20196;-77
2023/06/10 06:34:30;;;;;;;5.70;4.70;;;18.30;71.80;;;;;;5059801;28;20184;-77
2023/06/10 06:36:55;;;;;;;5.33;4.83;;;18.40;99.90;;;;;;5077975;28;20173;-77
2023/06/10 06:39:21;;;;;;;6.80;5.20;;;18.40;99.90;;;;;;5059850;28;20173;-77
2023/06/10 06:41:47;;;;;;;6.10;5.03;;;18.50;1.00;;;;;;5059725;28;20180;-77
2023/06/10 06:44:12;;;;;;;6.90;4.97;;;18.70;99.90;;;;;;5077321;28;20226;-77
2023/06/10 06:46:38;;;;;;;5.97;4.87;;;18.80;94.70;;;;;;5060102;28;20173;-77
2023/06/10 06:49:03;;;;;;;5.10;4.60;;;18.90;1.00;;;;;;5059846;28;20230;-77
2023/06/10 06:51:29;;;;;;;6.13;5.03;;;19.00;1.00;;;;;;5059426;28;20201;-79
2023/06/10 06:53:58;;;;;;;5.13;4.63;;;19.00;99.90;;;;;;5077238;28;20227;-78
2023/06/10 06:56:24;;;;;;;6.97;4.70;;;19.10;1.00;;;;;;5059101;28;20169;-77
2023/06/10 06:58:50;;;;;;;6.50;5.30;;;19.20;1.00;;;;;;5077739;28;20233;-78
2023/06/10 07:01:15;;;;;;;6.10;4.93;;;19.30;80.10;;;;;;5077572;28;20260;-79
2023/06/10 07:03:41;;;;;;;7.43;5.03;;;19.30;1.00;;;;;;5060406;28;20188;-77
2023/06/10 07:06:07;;;;;;;6.53;5.27;;;19.40;99.90;;;;;;5078080;28;20260;-78
2023/06/10 07:08:32;;;;;;;6.50;5.70;;;19.60;99.90;;;;;;5078245;28;20212;-78
2023/06/10 07:10:58;;;;;;;7.13;5.33;;;19.80;1.00;;;;;;5059712;28;20187;-78
2023/06/10 07:13:23;;;;;;;6.03;5.10;;;19.80;99.90;;;;;;5059850;28;20283;-77
2023/06/10 07:15:49;;;;;;;5.27;4.77;;;19.90;99.90;;;;;;5076564;28;20647;-75
2023/06/10 07:18:16;;;;;;;5.33;4.83;;;19.90;1.00;;;;;;5055298;28;20325;-77
2023/06/10 07:20:42;;;;;;;5.90;5.33;;;20.10;99.90;;;;;;5076399;28;20184;-77
2023/06/10 07:23:07;;;;;;;5.97;5.25;;;20.20;12.60;;;;;;5057958;28;20264;-77
2023/06/10 07:25:33;;;;;;;5.35;4.60;;;20.30;1.00;;;;;;5074597;28;20169;-78
2023/06/10 07:27:58;;;;;;;5.72;5.13;;;20.30;1.00;;;;;;5074170;28;20212;-78
2023/06/10 07:30:24;;;;;;;6.82;5.30;;;20.50;1.00;;;;;;5075931;28;20675;-77
2023/06/10 07:32:51;;;;;;;5.43;4.93;;;20.50;99.90;;;;;;5057702;28;20212;-77
2023/06/10 07:35:17;;;;;;;5.50;4.90;;;20.70;1.00;;;;;;5075527;28;20177;-78
2023/06/10 07:37:42;;;;;;;6.63;5.45;;;20.90;1.00;;;;;;5076520;28;20202;-77
2023/06/10 07:40:08;;;;;;;8.35;5.03;;;21.00;17.10;;;;;;5058656;28;20184;-78
2023/06/10 07:42:37;;;;;;;6.00;4.75;;;21.10;1.00;;;;;;5058855;28;20205;-78
2023/06/10 07:45:04;;;;;;;6.45;5.10;;;21.20;99.90;;;;;;5060888;28;20181;-77
2023/06/10 07:47:30;;;;;;;6.75;5.10;;;21.30;99.90;;;;;;5059354;28;20208;-78
2023/06/10 07:49:56;;;;;;;6.85;4.97;;;21.40;1.00;;;;;;5058353;28;20241;-78
2023/06/10 07:52:21;;;;;;;7.03;5.50;;;21.50;99.90;;;;;;5076270;28;20703;-79
2023/06/10 07:54:47;;;;;;;6.30;5.15;;;21.60;1.00;;;;;;5058470;28;20177;-77
2023/06/10 07:57:12;;;;;;;6.57;5.22;;;21.70;1.00;;;;;;5058502;28;20203;-77
2023/06/10 07:59:38;;;;;;;7.22;5.15;;;21.80;99.90;;;;;;5076628;28;20192;-78
2023/06/10 08:02:05;;;;;;;5.13;4.60;;;21.80;99.90;;;;;;5058276;28;20204;-78
2023/06/10 08:04:30;;;;;;;5.53;4.68;;;22.00;1.00;;;;;;5076310;28;20173;-78
2023/06/10 08:06:56;;;;;;;5.78;5.18;;;22.20;1.00;;;;;;5076135;28;20264;-78
2023/06/10 08:09:23;;;;;;;7.32;5.45;;;22.30;1.00;;;;;;5058235;28;20192;-76
2023/06/10 08:11:48;;;;;;;5.57;5.07;;;22.40;12.70;;;;;;5076208;28;20196;-78
2023/06/10 08:14:14;;;;;;;6.40;5.30;;;22.40;99.90;;;;;;5059073;28;20191;-79
2023/06/10 08:16:40;;;;;;;7.07;5.07;;;22.40;99.90;;;;;;5076065;28;20601;-78
2023/06/10 08:19:05;;;;;;;5.45;4.85;;;22.50;99.90;;;;;;5076119;28;20172;-77
2023/06/10 08:21:31;;;;;;;7.45;4.72;;;22.60;1.00;;;;;;5075782;28;20663;-78
2023/06/10 08:23:57;;;;;;;5.40;4.90;;;22.70;1.00;;;;;;5057526;28;20201;-79
2023/06/10 08:26:23;;;;;;;7.07;5.10;;;22.70;1.00;;;;;;5075699;28;20200;-78
2023/06/10 08:28:49;;;;;;;6.95;4.88;;;23.00;97.60;;;;;;5075459;28;20204;-78
2023/06/10 08:31:14;;;;;;;6.30;5.10;;;23.10;1.00;;;;;;5057327;28;20260;-77
2023/06/10 08:33:42;;;;;;;6.28;4.90;;;23.20;1.00;;;;;;5075764;28;20207;-77
2023/06/10 08:36:07;;;;;;;6.93;5.13;;;23.30;1.00;;;;;;5057551;28;20272;-78
2023/06/10 08:38:33;;;;;;;6.25;5.35;;;23.30;1.00;;;;;;5057304;28;20196;-78
2023/06/10 08:41:00;;;;;;;5.57;5.07;;;23.40;99.90;;;;;;5074554;28;20667;-77
2023/06/10 08:43:34;;;;;;;5.78;4.57;;;23.50;99.90;;;;;;5056356;28;20224;-78
2023/06/10 08:46:02;;;;;;;5.38;4.88;;;23.60;1.00;;;;;;5058799;28;20594;-77
2023/06/10 08:48:30;;;;;;;7.18;5.07;;;23.80;99.90;;;;;;5074448;28;20201;-77
2023/06/10 08:50:57;;;;;;;8.18;5.40;;;23.90;99.90;;;;;;5074161;28;20659;-77
2023/06/10 08:53:24;;;;;;;5.88;4.90;;;24.10;10.90;;;;;;5076449;28;20200;-78
2023/06/10 08:55:58;;;;;;;6.32;5.35;;;24.20;1.00;;;;;;5057839;28;20171;-78
2023/06/10 08:58:25;;;;;;;5.10;4.70;;;24.30;1.00;;;;;;5075316;28;20157;-78
2023/06/10 09:00:51;;;;;;;5.60;5.10;;;24.40;1.00;;;;;;5058109;28;20172;-78
2023/06/10 09:03:18;;;;;;;5.70;5.10;;;24.50;1.00;;;;;;5057832;28;20292;-78
2023/06/10 09:05:44;;;;;;;5.50;5.00;;;24.50;1.00;;;;;;5056552;28;20187;-78
2023/06/10 09:08:10;;;;;;;5.53;4.95;;;24.70;1.00;;;;;;5074336;28;20276;-78
2023/06/10 09:10:36;;;;;;;5.07;4.57;;;24.80;15.40;;;;;;5056440;28;20169;-79
2023/06/10 09:13:01;;;;;;;5.20;4.68;;;24.90;1.00;;;;;;5073347;28;20189;-78
2023/06/10 09:15:27;;;;;;;5.50;5.03;;;25.00;1.00;;;;;;5056203;28;20169;-79
2023/06/10 09:17:53;;;;;;;6.15;4.90;;;25.00;1.00;;;;;;5073676;28;20529;-78
2023/06/10 09:20:18;;;;;;;5.22;4.72;;;25.10;1.00;;;;;;5055745;28;20213;-78
2023/06/10 09:22:44;;;;;;;7.15;5.25;;;25.20;1.00;;;;;;5056205;28;20572;-78
2023/06/10 09:25:12;;;;;;;5.80;5.15;;;25.20;1.00;;;;;;5055682;28;20173;-77
2023/06/10 09:27:55;;;;;;;5.35;4.82;;;25.30;99.90;;;;;;5055276;28;20201;-79
2023/06/10 09:30:34;;;;;;;6.50;5.13;;;25.40;99.90;;;;;;5073859;28;20225;-78
2023/06/10 09:33:02;;;;;;;6.18;4.57;;;25.50;99.90;;;;;;5055014;28;20235;-76
2023/06/10 09:35:29;;;;;;;5.35;4.85;;;25.70;99.90;;;;;;5062860;28;20220;-78
2023/06/10 09:37:57;;;;;;;4.85;4.40;;;26.00;99.90;;;;;;5056519;28;20555;-77
2023/06/10 09:40:22;;;;;;;5.57;4.68;;;26.10;99.90;;;;;;5056471;28;20230;-78
2023/06/10 09:42:59;;;;;;;4.93;4.43;;;26.20;99.90;;;;;;5056806;28;20188;-78
2023/06/10 09:45:32;;;;;;;5.10;4.60;;;26.40;99.90;;;;;;5074366;28;20179;-78
2023/06/10 09:47:57;;;;;;;5.20;4.70;;;26.50;99.90;;;;;;5073849;28;20234;-78
2023/06/10 09:50:23;;;;;;;5.85;4.75;;;26.50;99.90;;;;;;5073975;28;20176;-77
2023/06/10 09:52:50;;;;;;;5.32;4.82;;;26.70;99.90;;;;;;5055920;28;20722;-78
2023/06/10 09:55:17;;;;;;;5.47;4.60;;;26.80;1.00;;;;;;5057771;28;20169;-78
2023/06/10 09:57:47;;;;;;;4.68;4.22;;;26.90;1.00;;;;;;5056544;28;20169;-79
2023/06/10 10:00:13;;;;;;;4.70;4.30;;;27.00;1.00;;;;;;5073659;28;20165;-77
2023/06/10 10:02:47;;;;;;;4.68;4.20;;;27.00;1.00;;;;;;5055394;28;20196;-78
2023/06/10 10:05:15;;;;;;;4.75;4.30;;;27.00;1.00;;;;;;5074713;28;20173;-78
2023/06/10 10:07:41;;;;;;;4.45;4.10;;;27.10;1.00;;;;;;5056817;28;20232;-78
2023/06/10 10:10:08;;;;;;;4.63;4.00;;;27.40;1.00;;;;;;5076102;28;20235;-79
2023/06/10 10:12:36;;;;;;;5.13;4.63;;;27.50;1.00;;;;;;5059239;28;20262;-78
2023/06/10 10:15:02;;;;;;;5.03;4.43;;;27.50;1.00;;;;;;5078006;28;20200;-78
2023/06/10 10:17:29;;;;;;;4.72;4.10;;;27.30;1.00;;;;;;5060008;28;20180;-78
2023/06/10 10:20:02;;;;;;;4.80;4.25;;;27.20;99.90;;;;;;5058651;28;20550;-79
2023/06/10 10:22:35;;;;;;;4.60;4.20;;;27.40;1.00;;;;;;5059157;28;20227;-78
2023/06/10 10:25:05;;;;;;;5.47;4.53;;;27.40;1.00;;;;;;5058850;28;20169;-76
2023/06/10 10:27:35;;;;;;;4.50;4.03;;;27.50;1.00;;;;;;5058560;28;20197;-78
2023/06/10 10:30:04;;;;;;;5.18;3.80;;;27.60;1.00;;;;;;5076404;28;20248;-79
2023/06/10 10:32:37;;;;;;;3.92;3.53;;;27.60;99.90;;;;;;5057568;28;20199;-80
2023/06/10 10:35:23;;;;;;;7.88;4.78;;;27.60;99.90;;;;;;5057404;28;20169;-79
2023/06/10 10:37:52;;;;;;;4.40;4.00;;;27.60;1.00;;;;;;5057988;28;20168;-80
2023/06/10 10:40:20;;;;;;;4.63;3.70;;;27.50;1.00;;;;;;5076379;28;20185;-80
2023/06/10 10:42:48;;;;;;;4.22;3.83;;;27.70;1.00;;;;;;5057340;28;20216;-79
2023/06/10 10:45:14;;;;;;;3.92;3.63;;;27.70;99.90;;;;;;5075744;28;20169;-79
2023/06/10 10:47:42;;;;;;;4.85;3.58;;;27.80;99.90;;;;;;5076138;28;20196;-79
2023/06/10 10:50:19;;;;;;;4.22;3.30;;;28.00;99.90;;;;;;5075533;28;20177;-79
2023/06/10 10:52:55;;;;;;;4.10;3.70;;;28.10;99.90;;;;;;5075752;28;20235;-78
2023/06/10 10:55:21;;;;;;;4.05;3.58;;;28.40;99.90;;;;;;5057738;28;20173;-79
2023/06/10 10:58:04;;;;;;;4.43;3.97;;;28.40;99.90;;;;;;5057808;28;20169;-79
2023/06/10 11:00:31;;;;;;;4.00;3.55;;;28.50;99.90;;;;;;5075291;28;20157;-79
2023/06/10 11:03:03;;;;;;;3.40;3.10;;;28.60;99.90;;;;;;5076313;28;20295;-79
2023/06/10 11:05:49;;;;;;;4.32;3.45;;;28.40;99.90;;;;;;5079609;28;20177;-79
2023/06/10 11:08:35;;;;;;;4.07;3.67;;;28.40;99.90;;;;;;5079351;28;20191;-79
2023/06/10 11:11:17;;;;;;;4.05;3.35;;;28.40;99.90;;;;;;5060774;28;20173;-79
2023/06/10 11:14:07;;;;;;;3.70;3.40;;;28.50;99.90;;;;;;5061245;28;20196;-79
2023/06/10 11:16:40;;;;;;;3.47;3.17;;;28.80;99.90;;;;;;5061306;28;20256;-79
2023/06/10 11:19:06;;;;;;;3.75;3.13;;;29.00;99.90;;;;;;5061351;28;20228;-80
2023/06/10 11:21:32;;;;;;;3.83;3.20;;;29.10;99.90;;;;;;5060427;28;20190;-79
2023/06/10 11:23:58;;;;;;;4.28;3.10;;;29.00;99.90;;;;;;5079163;28;20177;-79
2023/06/10 11:26:31;;;;;;;4.20;3.40;;;29.00;99.90;;;;;;5060583;28;20173;-79
2023/06/10 11:28:56;;;;;;;3.30;3.00;;;29.20;99.90;;;;;;5060532;28;20232;-79
2023/06/10 11:31:23;;;;;;;3.90;3.50;;;28.90;99.90;;;;;;5078325;28;20636;-79
2023/06/10 11:33:55;;;;;;;4.03;3.17;;;29.20;99.90;;;;;;5078825;28;20217;-80
2023/06/10 11:36:22;;;;;;;3.90;3.53;;;29.40;99.90;;;;;;5078654;28;20157;-79
2023/06/10 11:38:48;;;;;;;3.70;3.40;;;29.40;99.90;;;;;;5077604;28;20169;-79
2023/06/10 11:41:14;;;;;;;4.18;2.90;;;29.50;99.90;;;;;;5077560;28;20177;-79
2023/06/10 11:43:46;;;;;;;4.95;3.25;;;29.60;99.90;;;;;;5077799;28;20193;-80
2023/06/10 11:46:15;;;;;;;3.63;3.33;;;29.80;99.90;;;;;;5078444;28;20184;-79
2023/06/10 11:48:52;;;;;;;3.67;3.25;;;29.70;99.90;;;;;;5077982;28;20549;-79
2023/06/10 11:51:18;;;;;;;3.92;3.53;;;29.70;99.90;;;;;;5077676;28;20229;-79
2023/06/10 11:53:48;;;;;;;6.82;3.53;;;29.50;99.90;;;;;;5081411;22;20264;-84
2023/06/10 11:56:22;;;;;;;3.47;3.17;;;29.40;99.90;;;;;;5036548;28;20252;-83
2023/06/10 11:58:54;;;;;;;3.40;3.15;;;29.40;99.90;;;;;;5036171;28;20174;-83
2023/06/10 12:01:24;;;;;;;3.78;3.33;;;29.30;99.90;;;;;;5053915;28;20224;-84
2023/06/10 12:04:02;;;;;;;3.50;3.20;;;29.70;99.90;;;;;;5035601;28;20607;-83
2023/06/10 12:06:38;;;;;;;4.00;3.55;;;29.80;99.90;;;;;;5053367;28;20176;-84
2023/06/10 12:09:04;;;;;;;3.40;3.10;;;29.70;99.90;;;;;;5053604;28;20283;-83
2023/06/10 12:11:30;;;;;;;3.75;3.20;;;29.90;99.90;;;;;;5036132;28;20170;-83
2023/06/10 12:13:56;;;;;;;4.72;3.20;;;29.90;99.90;;;;;;5054012;28;20698;-83
2023/06/10 12:16:22;;;;;;;3.67;3.38;;;29.80;99.90;;;;;;5036315;28;20197;-84
2023/06/10 12:18:48;;;;;;;4.03;3.53;;;29.80;99.90;;;;;;5036588;28;20184;-84
2023/06/10 12:21:23;;;;;;;3.42;3.15;;;29.80;99.90;;;;;;5035959;28;20543;-83
2023/06/10 12:24:08;;;;;;;3.33;3.10;;;30.10;99.90;;;;;;5053898;28;20698;-84
2023/06/10 12:26:42;;;;;;;3.50;3.20;;;30.40;99.90;;;;;;5054178;28;20231;-83
2023/06/10 12:29:22;;;;;;;3.10;2.90;;;30.00;99.90;;;;;;5053914;28;20559;-84
2023/06/10 12:31:55;;;;;;;3.85;3.03;;;30.10;99.90;;;;;;5053709;28;20174;-83
2023/06/10 12:34:29;;;;;;;3.65;3.15;;;30.30;99.90;;;;;;5053938;28;20239;-83
2023/06/10 12:36:54;;;;;;;3.65;3.25;;;30.20;99.90;;;;;;5053872;28;20201;-84
2023/06/10 12:39:20;;;;;;;4.43;3.22;;;30.20;99.90;;;;;;5036018;28;20169;-83
2023/06/10 12:41:50;;;;;;;4.03;3.58;;;30.30;99.90;;;;;;5035562;28;20597;-83
2023/06/10 12:44:16;;;;;;;4.70;3.50;;;30.10;99.90;;;;;;5035688;28;20193;-83
2023/06/10 12:46:42;;;;;;;3.75;3.45;;;29.90;99.90;;;;;;5053187;28;20511;-83
2023/06/10 12:49:07;;;;;;;3.47;3.13;;;29.90;99.90;;;;;;5035427;28;20213;-84
2023/06/10 12:51:34;;;;;;;3.50;3.20;;;30.10;99.90;;;;;;5053298;28;20170;-83
2023/06/10 12:54:00;;;;;;;4.80;3.70;;;30.10;99.90;;;;;;5035457;28;20205;-83